Time;durP1;ratioP1;P1;durP2;ratioP2;P2;SDS_P1;SDS_P2;PMS_P1;PMS_P2;Temp;Humidity;BMP_temperature;BMP_pressure;BME280_temperature;BME280_humidity;BME280_pressure;Samples;Min_cycle;Max_cycle;Signal;HPM_P1;HPM_P2
2021/08/11 00:01:43;;;;;;;5.83;4.67;;;;;;;15.93;78.67;101025.47;5032414;28;20206;-84
2021/08/11 00:04:09;;;;;;;6.50;4.57;;;;;;;15.91;78.48;101024.72;5034007;28;20595;-84
2021/08/11 00:06:36;;;;;;;5.30;4.80;;;;;;;15.89;78.59;101021.31;5032225;28;20214;-84
2021/08/11 00:09:04;;;;;;;5.80;4.70;;;;;;;15.87;78.38;101022.41;5034420;28;20199;-84
2021/08/11 00:11:31;;;;;;;5.50;4.57;;;;;;;15.85;78.59;101027.88;5033873;28;20669;-84
2021/08/11 00:13:58;;;;;;;6.37;4.50;;;;;;;15.84;78.62;101028.00;5034390;28;20227;-83
2021/08/11 00:16:24;;;;;;;6.50;4.67;;;;;;;15.83;78.56;101026.28;5039834;28;20690;-84
2021/08/11 00:18:51;;;;;;;4.50;4.10;;;;;;;15.78;78.19;101029.34;5035410;28;20232;-84
2021/08/11 00:21:18;;;;;;;5.17;4.40;;;;;;;15.69;77.68;101038.13;5037701;28;20671;-83
2021/08/11 00:23:44;;;;;;;6.00;4.33;;;;;;;15.60;77.78;101033.47;5033597;28;20310;-84
2021/08/11 00:26:12;;;;;;;6.13;4.40;;;;;;;15.51;77.41;101026.97;5032072;28;20199;-84
2021/08/11 00:28:39;;;;;;;5.20;4.53;;;;;;;15.44;77.57;101028.41;5035680;28;20295;-84
2021/08/11 00:31:06;;;;;;;6.07;4.30;;;;;;;15.40;77.83;101026.09;5035095;28;20637;-83
2021/08/11 00:33:32;;;;;;;5.10;4.57;;;;;;;15.38;77.89;101028.06;5030217;28;20231;-84
2021/08/11 00:35:59;;;;;;;5.17;4.50;;;;;;;15.35;78.52;101030.97;5034792;28;20202;-84
2021/08/11 00:38:25;;;;;;;5.00;4.60;;;;;;;15.35;78.50;101030.97;5033229;28;20210;-84
2021/08/11 00:40:52;;;;;;;6.27;4.27;;;;;;;15.35;78.53;101033.66;5039065;28;20294;-85
2021/08/11 00:43:20;;;;;;;5.73;4.40;;;;;;;15.33;79.01;101022.19;5035463;28;20209;-85
2021/08/11 00:45:47;;;;;;;5.00;4.50;;;;;;;15.31;79.04;101027.66;5034466;28;20211;-84
2021/08/11 00:48:14;;;;;;;5.93;4.90;;;;;;;15.26;78.84;101032.50;5034629;28;20205;-83
2021/08/11 00:50:42;;;;;;;8.40;4.77;;;;;;;15.19;78.30;101028.59;5033555;28;20253;-85
2021/08/11 00:53:09;;;;;;;6.30;4.53;;;;;;;15.11;78.05;101037.22;5038161;28;20274;-85
2021/08/11 00:55:38;;;;;;;6.33;4.70;;;;;;;15.00;78.10;101029.16;5033781;28;20234;-84
2021/08/11 00:58:09;;;;;;;7.07;4.63;;;;;;;14.90;77.99;101028.97;5025550;28;20210;-83
2021/08/11 01:00:41;;;;;;;6.07;4.60;;;;;;;14.83;78.58;101035.78;5034286;28;20573;-84
2021/08/11 01:03:12;;;;;;;7.33;4.70;;;;;;;14.79;78.70;101028.09;5033065;28;20211;-85
2021/08/11 01:05:40;;;;;;;5.10;4.43;;;;;;;14.76;78.80;101028.31;5034046;28;20232;-84
2021/08/11 01:08:08;;;;;;;6.23;4.60;;;;;;;14.74;78.52;101036.47;5033734;28;20230;-84
2021/08/11 01:10:35;;;;;;;6.40;5.07;;;;;;;14.74;78.62;101032.91;5032120;28;20293;-84
2021/08/11 01:13:02;;;;;;;7.60;4.90;;;;;;;14.72;78.77;101040.22;5033490;28;20204;-84
2021/08/11 01:15:29;;;;;;;6.60;5.07;;;;;;;14.71;79.07;101042.03;5033689;28;20317;-84
2021/08/11 01:17:57;;;;;;;5.47;4.90;;;;;;;14.71;78.73;101030.47;5033854;28;20198;-84
2021/08/11 01:20:24;;;;;;;5.30;4.80;;;;;;;14.72;78.62;101042.91;5034032;28;20208;-84
2021/08/11 01:22:55;;;;;;;5.47;4.77;;;;;;;14.71;78.74;101036.69;5030485;28;20245;-84
2021/08/11 01:25:28;;;;;;;6.03;4.70;;;;;;;14.70;78.43;101036.78;5030339;28;20700;-83
2021/08/11 01:28:25;;;;;;;6.03;5.23;;;;;;;14.69;78.58;101043.16;5029597;28;20199;-85
2021/08/11 01:31:04;;;;;;;7.73;5.37;;;;;;;14.65;78.66;101047.03;5030152;28;20585;-84
2021/08/11 01:33:45;;;;;;;8.40;5.60;;;;;;;14.63;78.95;101039.09;5033389;28;20732;-84
2021/08/11 01:36:19;;;;;;;5.73;4.77;;;;;;;14.64;79.00;101040.81;5029529;28;20202;-84
2021/08/11 01:38:51;;;;;;;5.90;4.73;;;;;;;14.64;78.80;101039.94;5024940;28;20202;-84
2021/08/11 01:41:20;;;;;;;6.30;4.80;;;;;;;14.63;79.10;101046.28;5028885;28;20198;-84
2021/08/11 01:43:49;;;;;;;5.90;5.33;;;;;;;14.64;78.82;101042.63;5020541;28;20214;-83
2021/08/11 01:46:17;;;;;;;5.70;5.20;;;;;;;14.63;79.18;101047.13;5034257;28;20209;-83
2021/08/11 01:48:47;;;;;;;5.43;4.87;;;;;;;14.63;79.18;101046.28;5028446;28;20210;-84
2021/08/11 01:51:14;;;;;;;4.90;4.40;;;;;;;14.59;78.76;101033.09;5034062;28;20213;-84
2021/08/11 01:53:41;;;;;;;5.00;4.50;;;;;;;14.61;78.84;101040.19;5032773;28;20223;-84
2021/08/11 01:56:08;;;;;;;3.63;3.30;;;;;;;14.58;78.88;101047.47;5033344;28;20195;-83
2021/08/11 01:58:35;;;;;;;5.30;3.90;;;;;;;14.55;78.99;101041.47;5034138;28;20292;-84
2021/08/11 02:01:06;;;;;;;6.17;4.67;;;;;;;14.53;78.52;101041.59;5031596;28;20217;-84
2021/08/11 02:03:33;;;;;;;5.13;4.23;;;;;;;14.51;78.62;101032.78;5030754;28;20210;-85
2021/08/11 02:06:02;;;;;;;5.93;4.03;;;;;;;14.48;78.68;101040.22;5031755;28;20202;-84
2021/08/11 02:08:31;;;;;;;4.47;3.03;;;;;;;14.43;78.45;101037.88;5034359;28;20206;-83
2021/08/11 02:11:00;;;;;;;3.30;2.20;;;;;;;14.35;78.76;101034.84;5032701;28;20211;-84
2021/08/11 02:13:27;;;;;;;2.50;2.30;;;;;;;14.27;78.33;101037.25;5032439;28;20619;-84
2021/08/11 02:15:54;;;;;;;2.80;2.60;;;;;;;14.19;78.59;101040.47;5031525;28;20222;-84
2021/08/11 02:18:21;;;;;;;3.10;2.80;;;;;;;14.17;78.93;101038.88;5031492;28;20205;-84
2021/08/11 02:20:50;;;;;;;3.77;2.50;;;;;;;14.13;78.70;101040.94;5032338;28;20562;-84
2021/08/11 02:23:18;;;;;;;3.70;3.00;;;;;;;14.10;79.00;101035.78;5032300;28;20209;-83
2021/08/11 02:25:49;;;;;;;3.40;3.10;;;;;;;14.09;78.92;101033.22;5031647;28;20198;-82
2021/08/11 02:28:26;;;;;;;3.57;3.10;;;;;;;14.07;79.28;101030.66;5028595;28;20199;-84
2021/08/11 02:30:59;;;;;;;2.90;2.70;;;;;;;14.05;79.16;101031.72;5033441;28;20202;-85
2021/08/11 02:33:31;;;;;;;3.30;3.00;;;;;;;14.05;79.35;101034.41;5030853;28;20198;-84
2021/08/11 02:36:02;;;;;;;3.50;3.20;;;;;;;14.02;79.54;101037.28;5035140;28;20210;-84
2021/08/11 02:38:34;;;;;;;3.23;2.93;;;;;;;14.00;79.71;101037.41;5030902;28;20202;-85
2021/08/11 02:41:05;;;;;;;3.57;3.27;;;;;;;14.00;79.62;101037.41;5030541;28;20201;-85
2021/08/11 02:43:36;;;;;;;4.03;3.63;;;;;;;14.00;80.03;101041.91;5028329;28;20660;-83
2021/08/11 02:46:06;;;;;;;3.77;3.40;;;;;;;14.00;80.09;101052.63;5029404;28;20194;-83
2021/08/11 02:48:34;;;;;;;4.10;3.70;;;;;;;13.98;79.63;101046.50;5031175;28;20198;-84
2021/08/11 02:51:03;;;;;;;7.20;3.50;;;;;;;13.92;79.49;101041.63;5030457;28;20202;-84
2021/08/11 02:53:32;;;;;;;6.30;3.70;;;;;;;13.84;79.71;101040.31;5034372;28;20206;-83
2021/08/11 02:55:59;;;;;;;3.97;3.57;;;;;;;13.82;79.79;101049.41;5030659;28;20226;-84
2021/08/11 02:58:27;;;;;;;3.93;3.63;;;;;;;13.81;80.09;101048.56;5031549;28;20194;-84
2021/08/11 03:00:54;;;;;;;4.70;4.17;;;;;;;13.80;79.71;101049.53;5031370;28;20202;-84
2021/08/11 03:03:22;;;;;;;5.07;4.13;;;;;;;13.82;79.95;101052.09;5032273;28;20209;-84
2021/08/11 03:05:49;;;;;;;5.40;4.00;;;;;;;13.82;80.26;101050.28;5026968;28;20236;-84
2021/08/11 03:08:17;;;;;;;6.00;4.17;;;;;;;13.83;80.52;101051.13;5029218;28;20228;-84
2021/08/11 03:10:44;;;;;;;6.23;4.93;;;;;;;13.83;80.32;101054.66;5033022;28;20300;-83
2021/08/11 03:13:14;;;;;;;6.47;4.60;;;;;;;13.83;80.49;101053.81;5032973;28;20209;-84
2021/08/11 03:15:43;;;;;;;4.10;3.70;;;;;;;13.79;80.23;101058.53;5032952;28;20232;-84
2021/08/11 03:18:10;;;;;;;3.63;3.13;;;;;;;13.76;79.88;101055.22;5033795;28;20669;-83
2021/08/11 03:20:37;;;;;;;5.57;4.20;;;;;;;13.70;80.03;101044.94;5032327;28;20714;-84
2021/08/11 03:23:04;;;;;;;4.73;3.77;;;;;;;13.65;79.73;101049.75;5033134;28;20210;-84
2021/08/11 03:25:31;;;;;;;4.53;4.13;;;;;;;13.63;79.94;101051.66;5031679;28;20250;-83
2021/08/11 03:27:59;;;;;;;6.07;5.07;;;;;;;13.61;79.98;101054.47;5032595;28;20281;-83
2021/08/11 03:30:26;;;;;;;6.40;5.27;;;;;;;13.61;80.12;101058.97;5030565;28;20202;-83
2021/08/11 03:32:52;;;;;;;5.93;5.30;;;;;;;13.61;80.45;101054.47;5029592;28;20198;-83
2021/08/11 03:35:19;;;;;;;8.00;5.33;;;;;;;13.60;80.58;101052.75;5031604;28;20323;-83
2021/08/11 03:37:46;;;;;;;6.33;5.37;;;;;;;13.60;80.32;101049.22;5034447;28;20198;-83
2021/08/11 03:40:14;;;;;;;7.70;5.83;;;;;;;13.61;80.64;101054.47;5035323;28;20315;-84
2021/08/11 03:42:41;;;;;;;8.53;6.13;;;;;;;13.61;80.62;101050.94;5033651;28;20652;-84
2021/08/11 03:45:09;;;;;;;8.13;6.93;;;;;;;13.61;80.87;101056.31;5034766;28;20547;-83
2021/08/11 03:47:40;;;;;;;6.73;5.23;;;;;;;13.60;80.63;101052.75;5035737;28;20202;-84
2021/08/11 03:50:07;;;;;;;6.17;4.60;;;;;;;13.58;80.36;101051.16;5036928;28;20569;-84
2021/08/11 03:52:33;;;;;;;4.77;3.80;;;;;;;13.53;80.60;101055.00;5036720;28;20209;-83
2021/08/11 03:55:00;;;;;;;6.83;4.40;;;;;;;13.46;80.57;101050.16;5040101;28;20232;-84
2021/08/11 03:57:26;;;;;;;4.67;4.27;;;;;;;13.43;80.57;101048.59;5038780;28;20653;-84
2021/08/11 03:59:53;;;;;;;5.80;5.20;;;;;;;13.43;80.76;101056.63;5034980;28;20212;-83
2021/08/11 04:02:21;;;;;;;6.37;5.63;;;;;;;13.44;80.96;101058.28;5034316;28;20209;-82
2021/08/11 04:04:47;;;;;;;5.97;5.07;;;;;;;13.44;81.20;101062.78;5032956;28;20202;-83
2021/08/11 04:07:14;;;;;;;5.50;4.77;;;;;;;13.44;81.15;101062.78;5030987;28;20213;-84
2021/08/11 04:09:40;;;;;;;6.23;4.97;;;;;;;13.41;80.87;101063.88;5034393;28;20684;-84
2021/08/11 04:12:07;;;;;;;5.30;4.63;;;;;;;13.41;80.93;101057.69;5040630;28;20207;-84
2021/08/11 04:14:34;;;;;;;5.43;4.90;;;;;;;13.39;81.14;101071.16;5038434;28;20233;-84
2021/08/11 04:17:00;;;;;;;5.73;4.30;;;;;;;13.35;81.01;101063.44;5036862;28;20217;-83
2021/08/11 04:19:28;;;;;;;3.77;3.47;;;;;;;13.33;81.03;101073.38;5033978;28;20217;-84
2021/08/11 04:21:55;;;;;;;4.97;3.77;;;;;;;13.32;81.11;101082.38;5033189;28;20203;-84
2021/08/11 04:24:21;;;;;;;6.40;5.70;;;;;;;13.34;81.47;101075.09;5033174;28;20313;-84
2021/08/11 04:26:48;;;;;;;6.90;5.53;;;;;;;13.36;81.73;101075.84;5033777;28;20212;-84
2021/08/11 04:29:15;;;;;;;5.50;5.00;;;;;;;13.39;81.89;101076.50;5036639;28;20206;-83
2021/08/11 04:31:41;;;;;;;8.60;5.67;;;;;;;13.42;81.67;101078.13;5037363;28;20213;-84
2021/08/11 04:34:08;;;;;;;7.37;5.83;;;;;;;13.46;82.28;101079.59;5035420;28;20227;-84
2021/08/11 04:36:36;;;;;;;6.67;6.07;;;;;;;13.48;81.87;101080.34;5039438;28;20236;-84
2021/08/11 04:39:03;;;;;;;7.87;5.77;;;;;;;13.51;82.15;101078.34;5037347;28;20206;-84
2021/08/11 04:41:30;;;;;;;5.93;4.43;;;;;;;13.52;81.93;101082.72;5037098;28;20198;-84
2021/08/11 04:43:56;;;;;;;6.80;4.77;;;;;;;13.52;82.12;101084.53;5036859;28;20218;-83
2021/08/11 04:46:23;;;;;;;5.37;4.73;;;;;;;13.52;81.83;101087.22;5033280;28;20208;-83
2021/08/11 04:48:49;;;;;;;5.97;4.27;;;;;;;13.51;82.22;101089.03;5033674;28;20297;-84
2021/08/11 04:51:16;;;;;;;3.83;3.50;;;;;;;13.49;81.95;101093.63;5030893;28;20207;-83
2021/08/11 04:53:44;;;;;;;5.03;3.70;;;;;;;13.50;81.99;101095.34;5032501;28;20226;-83
2021/08/11 04:56:10;;;;;;;5.50;5.00;;;;;;;13.51;82.01;101094.38;5035582;28;20603;-84
2021/08/11 04:58:37;;;;;;;6.27;5.07;;;;;;;13.53;82.44;101091.59;5036141;28;20205;-84
2021/08/11 05:01:04;;;;;;;6.33;5.13;;;;;;;13.57;82.30;101100.28;5032885;28;20206;-84
2021/08/11 05:03:35;;;;;;;9.50;6.67;;;;;;;13.61;82.73;101104.47;5033800;28;20210;-84
2021/08/11 05:06:01;;;;;;;6.60;5.93;;;;;;;13.64;82.90;101090.84;5031085;28;20200;-85
2021/08/11 05:08:28;;;;;;;8.50;6.70;;;;;;;13.69;82.69;101097.63;5036960;28;20333;-85
2021/08/11 05:10:56;;;;;;;9.50;7.00;;;;;;;13.72;82.86;101105.44;5031441;28;20206;-83
2021/08/11 05:13:22;;;;;;;8.40;7.50;;;;;;;13.77;83.14;101114.00;5035831;28;20214;-85
2021/08/11 05:15:49;;;;;;;7.57;6.77;;;;;;;13.81;83.07;101109.28;5035210;28;20234;-84
2021/08/11 05:18:15;;;;;;;8.20;7.40;;;;;;;13.85;83.15;101111.66;5035094;28;20213;-85
2021/08/11 05:20:42;;;;;;;11.17;6.83;;;;;;;13.88;83.58;101111.44;5034968;28;20206;-84
2021/08/11 05:23:08;;;;;;;7.40;6.50;;;;;;;13.94;83.61;101117.34;5035700;28;20202;-84
2021/08/11 05:25:35;;;;;;;8.77;7.37;;;;;;;13.97;83.75;101118.00;5035078;28;20222;-84
2021/08/11 05:28:03;;;;;;;9.40;8.47;;;;;;;14.03;83.80;101114.00;5029558;28;20244;-83
2021/08/11 05:30:30;;;;;;;9.17;8.23;;;;;;;14.09;83.80;101114.44;5026205;28;20203;-84
2021/08/11 05:32:56;;;;;;;9.73;8.40;;;;;;;14.14;84.41;101116.81;5025159;28;20217;-84
2021/08/11 05:35:23;;;;;;;9.40;8.40;;;;;;;14.22;84.22;101126.00;5027149;28;20235;-84
2021/08/11 05:37:50;;;;;;;10.27;9.20;;;;;;;14.31;84.70;101121.81;5027836;28;20664;-83
2021/08/11 05:40:17;;;;;;;9.97;8.93;;;;;;;14.37;84.39;101118.69;5031122;28;20218;-83
2021/08/11 05:42:44;;;;;;;10.80;9.00;;;;;;;14.42;84.44;101121.91;5028417;28;20298;-83
2021/08/11 05:45:12;;;;;;;11.40;9.63;;;;;;;14.45;84.56;101113.66;5027609;28;20228;-83
2021/08/11 05:47:39;;;;;;;10.47;8.80;;;;;;;14.50;84.96;101119.56;5031370;28;20202;-84
2021/08/11 05:50:06;;;;;;;13.47;9.63;;;;;;;14.55;84.80;101113.84;5029763;28;20633;-84
2021/08/11 05:52:33;;;;;;;11.93;9.97;;;;;;;14.58;84.92;101117.16;5030684;28;20295;-85
2021/08/11 05:55:00;;;;;;;11.27;10.10;;;;;;;14.63;85.09;101124.03;5030512;28;20238;-84
2021/08/11 05:57:26;;;;;;;10.50;9.40;;;;;;;14.69;85.38;101131.63;5032384;28;20213;-84
2021/08/11 05:59:53;;;;;;;11.20;10.00;;;;;;;14.75;85.45;101129.34;5027135;28;20221;-84
2021/08/11 06:02:21;;;;;;;12.80;10.40;;;;;;;14.84;85.81;101127.81;5024092;28;20204;-84
2021/08/11 06:04:48;;;;;;;16.37;10.70;;;;;;;14.92;85.98;101131.63;5026386;28;20692;-83
2021/08/11 06:07:15;;;;;;;13.90;10.63;;;;;;;15.01;86.01;101132.78;5030109;28;20217;-85
2021/08/11 06:09:42;;;;;;;15.00;11.97;;;;;;;15.11;85.98;101133.81;5029339;28;20207;-84
2021/08/11 06:12:08;;;;;;;16.27;12.47;;;;;;;15.16;86.21;101137.00;5027689;28;20854;-83
2021/08/11 06:14:35;;;;;;;15.13;12.40;;;;;;;15.23;85.79;101143.63;5029202;28;20236;-83
2021/08/11 06:17:02;;;;;;;15.50;12.27;;;;;;;15.33;86.32;101143.78;5030876;28;20228;-83
2021/08/11 06:19:29;;;;;;;18.60;13.17;;;;;;;15.43;86.33;101141.25;5023574;28;20233;-84
2021/08/11 06:21:56;;;;;;;24.60;16.37;;;;;;;15.50;86.16;101140.69;5024767;28;20271;-84
2021/08/11 06:24:22;;;;;;;23.80;17.87;;;;;;;15.63;86.39;101135.25;5026866;28;20230;-83
2021/08/11 06:26:49;;;;;;;24.87;17.73;;;;;;;15.76;86.95;101133.38;5034315;28;20225;-83
2021/08/11 06:29:15;;;;;;;27.57;19.57;;;;;;;15.91;86.59;101140.22;5032657;28;20206;-84
2021/08/11 06:31:42;;;;;;;26.30;19.83;;;;;;;16.04;86.49;101136.56;5031851;28;20206;-83
2021/08/11 06:34:08;;;;;;;24.20;19.80;;;;;;;16.16;86.34;101140.97;5028082;28;20235;-83
2021/08/11 06:36:36;;;;;;;26.37;18.67;;;;;;;16.32;86.33;101138.78;5033120;28;20226;-83
2021/08/11 06:39:03;;;;;;;22.40;17.83;;;;;;;16.46;85.88;101138.56;5029842;28;20199;-84
2021/08/11 06:41:30;;;;;;;21.57;16.27;;;;;;;16.58;85.49;101140.25;5033719;28;20207;-84
2021/08/11 06:43:56;;;;;;;22.67;17.80;;;;;;;16.73;84.86;101145.41;5032501;28;20290;-85
2021/08/11 06:46:23;;;;;;;26.83;19.63;;;;;;;16.83;84.35;101143.69;5037660;28;20286;-84
2021/08/11 06:48:49;;;;;;;24.23;19.03;;;;;;;16.97;84.18;101154.16;5033282;28;20587;-85
2021/08/11 06:51:16;;;;;;;24.87;18.53;;;;;;;17.09;83.83;101150.44;5033748;28;20221;-84
2021/08/11 06:53:44;;;;;;;22.83;18.67;;;;;;;17.20;82.97;101150.41;5031738;28;20231;-85
2021/08/11 06:56:10;;;;;;;27.50;19.97;;;;;;;17.33;82.75;101150.25;5028371;28;20227;-83
2021/08/11 06:58:37;;;;;;;25.27;18.80;;;;;;;17.44;82.19;101142.13;5028848;28;20208;-83
2021/08/11 07:01:04;;;;;;;26.63;19.50;;;;;;;17.56;81.50;101151.84;5031671;28;20202;-84
2021/08/11 07:03:30;;;;;;;26.83;20.27;;;;;;;17.67;81.08;101153.69;5027009;28;20255;-84
2021/08/11 07:05:57;;;;;;;25.63;19.13;;;;;;;17.79;80.68;101146.38;5026707;28;20289;-84
2021/08/11 07:08:24;;;;;;;27.07;18.50;;;;;;;17.86;79.61;101148.44;5034308;28;20315;-84
2021/08/11 07:10:52;;;;;;;27.80;19.97;;;;;;;17.97;79.21;101151.03;5029624;28;20208;-84
2021/08/11 07:13:19;;;;;;;25.80;19.53;;;;;;;18.04;78.90;101154.94;5033943;28;20309;-84
2021/08/11 07:15:45;;;;;;;28.27;20.57;;;;;;;18.13;78.23;101152.41;5034444;28;20225;-84
2021/08/11 07:18:16;;;;;;;27.23;19.33;;;;;;;18.21;77.64;101156.16;5035224;28;20302;-85
2021/08/11 07:20:42;;;;;;;22.97;18.17;;;;;;;18.29;77.00;101164.41;5032173;28;20220;-84
2021/08/11 07:23:09;;;;;;;21.93;16.97;;;;;;;18.33;76.25;101173.09;5022818;28;20204;-84
2021/08/11 07:25:35;;;;;;;25.50;18.57;;;;;;;18.29;75.54;101164.41;5024967;28;20223;-84
2021/08/11 07:28:04;;;;;;;24.60;19.40;;;;;;;18.29;75.05;101171.66;5025592;28;20296;-84
2021/08/11 07:30:30;;;;;;;24.80;19.03;;;;;;;18.28;74.96;101176.19;5027469;28;20203;-85
2021/08/11 07:32:57;;;;;;;27.73;20.67;;;;;;;18.32;74.90;101179.47;5021881;28;20210;-85
2021/08/11 07:35:23;;;;;;;22.43;19.30;;;;;;;18.38;75.18;101187.03;5025888;28;20233;-84
2021/08/11 07:37:52;;;;;;;26.17;20.27;;;;;;;18.47;74.85;101188.91;5033180;28;20568;-85
2021/08/11 07:40:19;;;;;;;23.77;19.37;;;;;;;18.55;74.76;101196.34;5020384;28;20312;-84
2021/08/11 07:42:46;;;;;;;24.03;18.67;;;;;;;18.55;73.88;101197.19;5026280;28;20568;-85
2021/08/11 07:45:15;;;;;;;23.50;19.33;;;;;;;18.60;73.88;101197.69;5026369;28;20226;-85
2021/08/11 07:47:47;;;;;;;24.00;19.40;;;;;;;18.63;73.88;101200.09;5021883;28;20201;-85
2021/08/11 07:50:15;;;;;;;27.77;19.67;;;;;;;18.73;74.01;101214.50;5029310;28;20779;-85
2021/08/11 07:52:42;;;;;;;24.33;19.73;;;;;;;18.83;74.02;101210.97;5029087;28;20590;-84
2021/08/11 07:55:09;;;;;;;27.87;20.23;;;;;;;18.90;73.59;101209.44;5031459;28;20229;-84
2021/08/11 07:57:36;;;;;;;27.97;19.13;;;;;;;18.97;73.14;101211.47;5032968;28;20258;-84
2021/08/11 08:00:04;;;;;;;23.07;19.33;;;;;;;19.05;73.26;101208.06;5025422;28;20207;-84
2021/08/11 08:02:32;;;;;;;21.20;17.80;;;;;;;19.13;72.82;101208.22;5031311;28;20211;-83
2021/08/11 08:04:58;;;;;;;22.27;18.30;;;;;;;19.18;72.32;101214.03;5032108;28;20220;-84
2021/08/11 08:07:25;;;;;;;22.63;19.23;;;;;;;19.26;71.78;101210.66;5024336;28;20587;-84
2021/08/11 08:09:51;;;;;;;20.47;18.30;;;;;;;19.35;71.60;101210.66;5026281;28;20609;-85
2021/08/11 08:12:18;;;;;;;23.50;18.07;;;;;;;19.48;71.25;101210.41;5025614;28;20579;-85
2021/08/11 08:14:44;;;;;;;24.10;17.30;;;;;;;19.57;70.50;101219.53;5028070;28;20248;-85
2021/08/11 08:17:11;;;;;;;20.87;17.03;;;;;;;19.58;69.34;101207.72;5027288;28;20214;-83
2021/08/11 08:19:39;;;;;;;21.17;17.70;;;;;;;19.60;69.40;101203.91;5024297;28;20296;-84
2021/08/11 08:22:05;;;;;;;19.43;16.83;;;;;;;19.63;69.29;101210.88;5022874;28;20206;-84
2021/08/11 08:24:32;;;;;;;22.40;17.53;;;;;;;19.67;69.12;101210.47;5031103;28;20290;-84
2021/08/11 08:26:59;;;;;;;23.37;18.53;;;;;;;19.69;68.69;101218.44;5035742;28;20258;-84
2021/08/11 08:29:28;;;;;;;19.27;17.23;;;;;;;19.79;69.34;101232.78;5029362;28;20305;-85
2021/08/11 08:31:54;;;;;;;22.33;17.13;;;;;;;19.88;69.17;101223.81;5025434;28;20204;-84
2021/08/11 08:34:21;;;;;;;22.33;17.27;;;;;;;20.00;68.80;101229.94;5026537;28;20664;-84
2021/08/11 08:36:49;;;;;;;19.40;16.80;;;;;;;20.16;68.53;101223.91;5036050;28;20319;-84
2021/08/11 08:39:15;;;;;;;18.33;16.40;;;;;;;20.29;68.32;101221.75;5030325;28;20283;-84
2021/08/11 08:41:45;;;;;;;20.30;16.30;;;;;;;20.40;67.40;101218.94;5031073;28;20215;-84
2021/08/11 08:44:13;;;;;;;18.73;15.90;;;;;;;20.50;66.68;101225.16;5032255;28;20663;-83
2021/08/11 08:46:42;;;;;;;17.83;15.93;;;;;;;20.60;66.79;101228.66;5030213;28;20259;-84
2021/08/11 08:49:08;;;;;;;20.00;16.17;;;;;;;20.74;66.78;101211.97;5034708;28;20714;-84
2021/08/11 08:51:42;;;;;;;21.77;17.87;;;;;;;20.87;66.27;101227.00;5037676;28;20212;-84
2021/08/11 08:54:11;;;;;;;21.83;17.17;;;;;;;20.99;66.14;101228.50;5033732;28;20257;-84
2021/08/11 08:56:38;;;;;;;18.93;16.97;;;;;;;21.10;65.45;101222.91;5032049;28;20233;-84
2021/08/11 08:59:05;;;;;;;23.07;18.63;;;;;;;21.17;64.96;101215.84;5032548;28;20213;-84
2021/08/11 09:01:31;;;;;;;20.08;17.35;;;;;;;21.23;64.36;101218.00;5029599;28;20195;-85
2021/08/11 09:03:58;;;;;;;21.97;18.53;;;;;;;21.27;63.99;101218.56;5032146;28;20598;-84
2021/08/11 09:06:24;;;;;;;18.73;16.80;;;;;;;21.34;64.11;101215.06;5033638;28;20202;-84
2021/08/11 09:08:57;;;;;;;19.83;16.73;;;;;;;21.49;64.43;101210.00;5034864;28;20205;-84
2021/08/11 09:11:25;;;;;;;19.08;16.67;;;;;;;21.65;64.19;101221.00;5035549;28;20694;-84
2021/08/11 09:14:20;;;;;;;19.05;16.85;;;;;;;21.82;63.17;101213.84;5034231;28;20226;-83
2021/08/11 09:16:47;;;;;;;18.15;16.15;;;;;;;21.89;62.18;101214.91;5033826;28;20226;-83
2021/08/11 09:19:14;;;;;;;19.25;16.00;;;;;;;21.95;61.54;101211.59;5030934;28;20675;-83
2021/08/11 09:21:41;;;;;;;18.05;16.15;;;;;;;22.02;61.59;101217.28;5034874;28;20202;-84
2021/08/11 09:24:18;;;;;;;20.08;16.42;;;;;;;22.11;61.64;101213.59;5042262;28;20566;-84
2021/08/11 09:26:46;;;;;;;18.27;15.60;;;;;;;22.22;61.43;101215.19;5028980;28;20202;-84
2021/08/11 09:29:12;;;;;;;17.23;15.43;;;;;;;22.33;61.33;101217.66;5032312;28;20198;-83
2021/08/11 09:31:39;;;;;;;18.80;16.23;;;;;;;22.44;60.68;101217.38;5034132;28;20208;-83
2021/08/11 09:34:08;;;;;;;19.52;15.63;;;;;;;22.54;60.13;101207.28;5036062;28;20232;-84
2021/08/11 09:36:41;;;;;;;17.17;15.25;;;;;;;22.65;59.83;101217.84;5030228;28;20226;-84
2021/08/11 09:39:07;;;;;;;16.80;15.10;;;;;;;22.78;59.72;101217.44;5029996;28;20657;-84
2021/08/11 09:41:34;;;;;;;16.90;15.07;;;;;;;22.90;58.92;101215.28;5033978;28;20657;-84
2021/08/11 09:44:08;;;;;;;17.88;13.93;;;;;;;23.05;58.79;101216.38;5036239;28;20285;-83
2021/08/11 09:46:36;;;;;;;15.30;11.90;;;;;;;23.22;57.73;101220.00;5035621;28;20225;-85
2021/08/11 09:49:13;;;;;;;17.38;14.13;;;;;;;23.32;56.99;101218.81;5036393;28;20711;-84
2021/08/11 09:51:54;;;;;;;19.55;13.63;;;;;;;23.38;56.45;101211.88;5023875;28;20228;-85
2021/08/11 09:54:21;;;;;;;17.17;12.93;;;;;;;23.45;55.85;101221.94;5031017;28;20221;-81
2021/08/11 09:56:48;;;;;;;16.45;13.43;;;;;;;23.51;56.02;101221.28;5035258;28;20320;-83
2021/08/11 09:59:16;;;;;;;15.32;13.73;;;;;;;23.56;55.62;101214.50;5034572;28;20665;-85
2021/08/11 10:01:43;;;;;;;15.80;11.52;;;;;;;23.61;55.41;101223.00;5031825;28;20292;-84
2021/08/11 10:04:11;;;;;;;13.20;11.80;;;;;;;23.67;54.86;101223.16;5037778;28;20315;-84
2021/08/11 10:06:39;;;;;;;15.52;11.90;;;;;;;23.69;54.18;101229.28;5032643;28;20202;-84
2021/08/11 10:09:15;;;;;;;17.20;12.02;;;;;;;23.73;54.20;101213.50;5032457;28;20326;-85
2021/08/11 10:11:43;;;;;;;15.52;11.00;;;;;;;23.76;53.69;101221.31;5025957;28;20219;-83
2021/08/11 10:14:11;;;;;;;13.98;11.43;;;;;;;23.78;52.99;101227.44;5024153;28;20226;-84
2021/08/11 10:16:40;;;;;;;11.63;9.82;;;;;;;23.81;52.88;101217.09;5026438;28;20764;-84
2021/08/11 10:19:08;;;;;;;13.85;10.07;;;;;;;23.86;53.06;101220.13;5030739;28;20206;-85
2021/08/11 10:21:37;;;;;;;12.80;11.18;;;;;;;23.92;52.22;101223.19;5023787;28;20201;-86
2021/08/11 10:24:05;;;;;;;11.57;8.77;;;;;;;23.91;52.04;101227.78;5032042;28;20234;-83
2021/08/11 10:26:32;;;;;;;10.55;8.77;;;;;;;23.90;51.43;101226.06;5032156;28;20209;-84
2021/08/11 10:28:59;;;;;;;8.77;7.60;;;;;;;23.91;51.04;101235.94;5030331;28;20203;-84
2021/08/11 10:31:26;;;;;;;12.05;9.38;;;;;;;23.92;50.95;101229.47;5030160;28;20210;-85
2021/08/11 10:33:54;;;;;;;12.02;8.35;;;;;;;23.95;50.94;101234.59;5032890;28;20718;-84
2021/08/11 10:36:21;;;;;;;12.40;7.75;;;;;;;23.99;51.15;101233.25;5034304;28;20207;-84
2021/08/11 10:38:47;;;;;;;11.02;7.63;;;;;;;24.07;51.07;101232.38;5028670;28;20213;-84
2021/08/11 10:41:15;;;;;;;12.32;9.18;;;;;;;24.20;50.53;101244.44;5033811;28;20305;-82
2021/08/11 10:43:43;;;;;;;11.27;7.72;;;;;;;24.25;49.84;101241.22;5031552;28;20217;-85
2021/08/11 10:46:18;;;;;;;7.53;5.78;;;;;;;24.29;48.73;101242.59;5033255;28;20198;-85
2021/08/11 10:49:01;;;;;;;8.55;5.38;;;;;;;24.23;48.25;101241.41;5030909;28;20288;-83
2021/08/11 10:51:39;;;;;;;11.48;7.10;;;;;;;24.23;48.52;101243.25;5029018;28;20285;-85
2021/08/11 10:54:06;;;;;;;11.57;7.80;;;;;;;24.25;47.92;101249.41;5025798;28;20241;-83
2021/08/11 10:56:43;;;;;;;7.35;6.55;;;;;;;24.27;47.70;101244.63;5031328;28;20209;-85
2021/08/11 10:59:45;;;;;;;9.32;7.00;;;;;;;24.35;47.94;101246.50;5025904;28;20198;-84
2021/08/11 11:02:44;;;;;;;9.00;6.97;;;;;;;24.42;47.70;101247.50;5028245;28;20201;-84
2021/08/11 11:05:44;;;;;;;8.98;7.32;;;;;;;24.47;48.16;101232.38;5025627;28;20680;-86
2021/08/11 11:08:33;;;;;;;8.05;6.65;;;;;;;24.50;48.11;101236.63;5022200;28;20742;-86
2021/08/11 11:11:37;;;;;;;7.40;6.25;;;;;;;24.49;47.42;101224.88;5026659;28;20199;-86
2021/08/11 11:14:06;;;;;;;10.98;7.82;;;;;;;24.48;47.65;101225.88;5026007;28;20596;-84
2021/08/11 11:17:03;;;;;;;7.50;6.45;;;;;;;24.53;47.31;101223.50;5027738;28;20308;-85
2021/08/11 11:19:30;;;;;;;7.93;5.55;;;;;;;24.60;46.84;101229.09;4999899;28;20587;-85
2021/08/11 11:21:57;;;;;;;6.97;6.13;;;;;;;24.62;46.15;101221.59;5028613;28;20293;-84
2021/08/11 11:24:50;;;;;;;6.00;5.13;;;;;;;24.63;46.52;101223.28;5021460;28;20226;-83
2021/08/11 11:27:54;;;;;;;7.70;5.93;;;;;;;24.66;46.45;101214.78;5025958;28;20305;-85